LFLLLSGG

Guest
Details From LFLL - Lyon Saint Exupery
To LSGG - Geneva
Flight Number -
Tags generated
Created
Modified
Stats Distance 52 nm / 97 km
Max Altitude 3,900 ft / 1,189 m
Waypoints 3
Social Downloads 5
Likes 0
Share

Download

Looking for another format? Having issues loading an existing format? Contact us
Advertisement - Login to hide

Notes

Basic altitude profile: - Ascent Rate: 800ft/min - Ascent Speed: 150kts - Cruise Altitude: 12000ft - Cruise Speed: 250kts - Descent Rate: 800ft/min - Descent Speed: 250kts Options: - Use NATs: no - Use PACOTS: no - Use low airways: yes - Use high airways: yes

Route

LFLL DEPUL LSGG

ID Type Via Altitude (ft/m) Position (lat/lon) Dist (leg/tot) Name
O LFLL APT - 0 / 0 45.72580 / 5.09073 - / 0 nm Lyon Saint Exupery
DEPUL FIX - 3,900 / 1,189 45.92500 / 5.49444 20 / 20 nm
O LSGG APT - 0 / 0 46.23770 / 6.10610 31 / 52 nm Geneva

Altitude Profile

Advertisement - Login to hide

LFLL

Details ICAO LFLL (LYS)
Name Lyon Saint Exupery
Region France
Timezone Europe/Paris (UTC+1.0)
Stats Elevation 817 ft / 249 m (AMSL)
Location 45.725800° 5.090730°
Runways 2
Magnetic Variation 1.835° E

METAR

LFLL 311600Z 17005KT 150V210 CAVOK 19/10 Q1021 NOSIG

Decode

TAF

TAF LFLL 311100Z 3112/0118 16005KT CAVOK= TAF LFST 311100Z 3112/0112 18010KT CAVOK BECMG 0100/0102 BKN035

Decode

Departure Runways

ID Width Length Bearing (true/mag) Surface Threshold Overrun Markings Lighting
17L 148 ft / 45 m 8,766 ft / 2,672 m 175.14° / 173.31° ASPHALT 0 ft / 0 m 59 ft / 18 m PREC-APP CENTERLINE EDGE THRESHOLD RAIL REIL-OMNI
17R 145 ft / 44 m 13,135 ft / 4,003 m 175.14° / 173.31° ASPHALT 0 ft / 0 m 190 ft / 58 m PREC-APP CENTERLINE EDGE THRESHOLD RAIL REIL-OMNI
35L 145 ft / 44 m 13,135 ft / 4,003 m 355.14° / 353.31° ASPHALT 0 ft / 0 m 184 ft / 56 m PREC-APP CENTERLINE EDGE THRESHOLD CALVERT TDZ REIL-OMNI
35R 148 ft / 45 m 8,766 ft / 2,672 m 355.14° / 353.31° ASPHALT 0 ft / 0 m 62 ft / 19 m PREC-APP CENTERLINE EDGE THRESHOLD CALVERT TDZ REIL-OMNI

LSGG

Details ICAO LSGG (GVA)
Name Geneva
Region Switzerland
Timezone Europe/Zurich (UTC+1.0)
Stats Elevation 1,410 ft / 430 m (AMSL)
Location 46.237700° 6.106100°
Runways 2
Magnetic Variation 2.086° E

METAR

LSGG 311620Z 09003KT 0300 R04/0275N R22/0325N FG VV001 09/09 Q1023 TEMPO 1000 BR

Decode

TAF

TAF AMD LSGG 311511Z 3115/0121 VRB03KT 0500 FG VV002 TX11/3115Z TN04/0106Z TX17/0114Z BECMG 0110/0112 8000 NSC BECMG 0118/0120 23010KT

Decode

Destination Runways

ID Width Length Bearing (true/mag) Surface Threshold Overrun Markings Lighting
04 164 ft / 50 m 12,806 ft / 3,903 m 45.46° / 43.37° CONCRETE 1,073 ft / 327 m 0 ft / 0 m PREC-APP CENTERLINE EDGE THRESHOLD ALSF-I TDZ REIL-UNI
04L 98 ft / 30 m 2,703 ft / 824 m 45.31° / 43.22° GRASS 610 ft / 186 m 0 ft / 0 m NONE
22 164 ft / 50 m 12,806 ft / 3,903 m 225.48° / 223.40° CONCRETE 0 ft / 0 m 0 ft / 0 m PREC-APP CENTERLINE EDGE THRESHOLD ALSF-II TDZ REIL-UNI
22R 98 ft / 30 m 2,703 ft / 824 m 225.31° / 223.23° GRASS 1,001 ft / 305 m 0 ft / 0 m NONE

Approach Navaids

Runway Type Ident Frequency Range Bearing (true/mag) Slope Elevation
04 GS INE 110.90 MHz 10 nm / 19 km 45.48° / 43.39 ° 3.00° 1,410 ft / 430 m (AMSL)
04 LOC-ILS INE 110.90 MHz 18 nm / 33 km 45.48° / 43.39 ° - 1,410 ft / 430 m (AMSL)
22 GS ISW 109.90 MHz 10 nm / 19 km 225.48° / 223.39 ° 3.00° 1,410 ft / 430 m (AMSL)
22 LOC-ILS ISW 109.90 MHz 18 nm / 33 km 225.48° / 223.39 ° - 1,410 ft / 430 m (AMSL)

Popular Alternatives